sensor_id;sensor_type;location;lat;lon;timestamp;P1;durP1;ratioP1;P2;durP2;ratioP2
21894;SDS011;11112;51.270;7.224;2022-11-18T00:01:05;9.00;;;2.13;;
21894;SDS011;11112;51.270;7.224;2022-11-18T00:03:34;6.18;;;1.80;;
21894;SDS011;11112;51.270;7.224;2022-11-18T00:06:01;7.72;;;2.08;;
21894;SDS011;11112;51.270;7.224;2022-11-18T00:08:31;6.88;;;2.28;;
21894;SDS011;11112;51.270;7.224;2022-11-18T00:11:04;6.97;;;1.98;;
21894;SDS011;11112;51.270;7.224;2022-11-18T00:13:33;5.93;;;2.33;;
21894;SDS011;11112;51.270;7.224;2022-11-18T00:16:20;7.90;;;2.03;;
21894;SDS011;11112;51.270;7.224;2022-11-18T00:18:49;8.48;;;2.13;;
21894;SDS011;11112;51.270;7.224;2022-11-18T00:21:17;4.78;;;1.65;;
21894;SDS011;11112;51.270;7.224;2022-11-18T00:23:47;8.10;;;2.50;;
21894;SDS011;11112;51.270;7.224;2022-11-18T00:26:17;5.55;;;1.85;;
21894;SDS011;11112;51.270;7.224;2022-11-18T00:28:44;7.55;;;2.30;;
21894;SDS011;11112;51.270;7.224;2022-11-18T00:31:12;5.63;;;1.90;;
21894;SDS011;11112;51.270;7.224;2022-11-18T00:33:40;7.72;;;2.13;;
21894;SDS011;11112;51.270;7.224;2022-11-18T00:36:08;7.40;;;1.98;;
21894;SDS011;11112;51.270;7.224;2022-11-18T00:38:37;6.88;;;2.17;;
21894;SDS011;11112;51.270;7.224;2022-11-18T00:41:06;7.95;;;1.90;;
21894;SDS011;11112;51.270;7.224;2022-11-18T00:43:37;5.47;;;1.90;;
21894;SDS011;11112;51.270;7.224;2022-11-18T00:46:04;6.32;;;1.92;;
21894;SDS011;11112;51.270;7.224;2022-11-18T00:48:33;8.40;;;1.75;;
21894;SDS011;11112;51.270;7.224;2022-11-18T00:51:05;8.90;;;2.22;;
21894;SDS011;11112;51.270;7.224;2022-11-18T00:53:35;9.98;;;2.25;;
21894;SDS011;11112;51.270;7.224;2022-11-18T00:56:03;6.40;;;2.08;;
21894;SDS011;11112;51.270;7.224;2022-11-18T00:58:31;7.57;;;1.90;;
21894;SDS011;11112;51.270;7.224;2022-11-18T01:01:01;7.45;;;2.03;;
21894;SDS011;11112;51.270;7.224;2022-11-18T01:03:30;9.52;;;2.00;;
21894;SDS011;11112;51.270;7.224;2022-11-18T01:05:57;8.02;;;2.17;;
21894;SDS011;11112;51.270;7.224;2022-11-18T01:08:24;7.05;;;2.10;;
21894;SDS011;11112;51.270;7.224;2022-11-18T01:10:51;8.13;;;1.88;;
21894;SDS011;11112;51.270;7.224;2022-11-18T01:13:19;6.93;;;1.90;;
21894;SDS011;11112;51.270;7.224;2022-11-18T01:15:50;6.00;;;1.80;;
21894;SDS011;11112;51.270;7.224;2022-11-18T01:18:23;6.25;;;1.75;;
21894;SDS011;11112;51.270;7.224;2022-11-18T01:20:58;7.80;;;1.80;;
21894;SDS011;11112;51.270;7.224;2022-11-18T01:23:27;7.40;;;2.30;;
21894;SDS011;11112;51.270;7.224;2022-11-18T01:25:54;6.68;;;2.00;;
21894;SDS011;11112;51.270;7.224;2022-11-18T01:28:23;7.32;;;2.20;;
21894;SDS011;11112;51.270;7.224;2022-11-18T01:30:51;7.07;;;2.20;;
21894;SDS011;11112;51.270;7.224;2022-11-18T01:33:18;9.07;;;2.42;;
21894;SDS011;11112;51.270;7.224;2022-11-18T01:35:46;9.13;;;2.42;;
21894;SDS011;11112;51.270;7.224;2022-11-18T01:38:14;7.90;;;2.10;;
21894;SDS011;11112;51.270;7.224;2022-11-18T01:40:44;7.63;;;1.90;;
21894;SDS011;11112;51.270;7.224;2022-11-18T01:43:14;7.90;;;2.20;;
21894;SDS011;11112;51.270;7.224;2022-11-18T01:45:45;8.05;;;1.90;;
21894;SDS011;11112;51.270;7.224;2022-11-18T01:48:14;7.10;;;2.15;;
21894;SDS011;11112;51.270;7.224;2022-11-18T01:50:49;9.32;;;2.40;;
21894;SDS011;11112;51.270;7.224;2022-11-18T01:53:21;5.57;;;1.67;;
21894;SDS011;11112;51.270;7.224;2022-11-18T01:55:52;7.93;;;2.33;;
21894;SDS011;11112;51.270;7.224;2022-11-18T01:58:22;6.75;;;2.08;;
21894;SDS011;11112;51.270;7.224;2022-11-18T02:00:54;7.10;;;1.80;;
21894;SDS011;11112;51.270;7.224;2022-11-18T02:03:22;6.07;;;1.80;;
21894;SDS011;11112;51.270;7.224;2022-11-18T02:05:54;8.45;;;1.85;;
21894;SDS011;11112;51.270;7.224;2022-11-18T02:08:24;8.60;;;1.80;;
21894;SDS011;11112;51.270;7.224;2022-11-18T02:10:52;7.32;;;1.85;;
21894;SDS011;11112;51.270;7.224;2022-11-18T02:13:20;7.40;;;1.98;;
21894;SDS011;11112;51.270;7.224;2022-11-18T02:15:49;6.75;;;1.90;;
21894;SDS011;11112;51.270;7.224;2022-11-18T02:18:29;6.57;;;1.88;;
21894;SDS011;11112;51.270;7.224;2022-11-18T02:21:14;5.97;;;1.90;;
21894;SDS011;11112;51.270;7.224;2022-11-18T02:26:57;6.70;;;1.70;;
21894;SDS011;11112;51.270;7.224;2022-11-18T02:29:52;6.35;;;2.30;;
21894;SDS011;11112;51.270;7.224;2022-11-18T02:32:24;4.95;;;1.70;;
21894;SDS011;11112;51.270;7.224;2022-11-18T02:34:57;8.77;;;2.15;;
21894;SDS011;11112;51.270;7.224;2022-11-18T02:37:30;5.82;;;1.65;;
21894;SDS011;11112;51.270;7.224;2022-11-18T02:40:03;5.13;;;1.63;;
21894;SDS011;11112;51.270;7.224;2022-11-18T02:42:37;7.63;;;2.17;;
21894;SDS011;11112;51.270;7.224;2022-11-18T02:45:09;7.35;;;1.90;;
21894;SDS011;11112;51.270;7.224;2022-11-18T02:47:41;8.15;;;2.05;;
21894;SDS011;11112;51.270;7.224;2022-11-18T02:50:14;6.93;;;1.92;;
21894;SDS011;11112;51.270;7.224;2022-11-18T02:52:45;5.72;;;2.10;;
21894;SDS011;11112;51.270;7.224;2022-11-18T02:55:20;9.18;;;2.40;;
21894;SDS011;11112;51.270;7.224;2022-11-18T02:57:49;6.65;;;1.85;;
21894;SDS011;11112;51.270;7.224;2022-11-18T03:00:18;5.20;;;1.95;;
21894;SDS011;11112;51.270;7.224;2022-11-18T03:02:47;8.23;;;2.40;;
21894;SDS011;11112;51.270;7.224;2022-11-18T03:05:16;7.93;;;2.20;;
21894;SDS011;11112;51.270;7.224;2022-11-18T03:07:53;6.10;;;2.30;;
21894;SDS011;11112;51.270;7.224;2022-11-18T03:10:27;6.10;;;2.50;;
21894;SDS011;11112;51.270;7.224;2022-11-18T03:13:04;6.72;;;2.25;;
21894;SDS011;11112;51.270;7.224;2022-11-18T03:15:42;7.97;;;2.13;;
21894;SDS011;11112;51.270;7.224;2022-11-18T03:18:19;7.22;;;1.95;;
21894;SDS011;11112;51.270;7.224;2022-11-18T03:20:54;5.72;;;2.00;;
21894;SDS011;11112;51.270;7.224;2022-11-18T03:23:32;6.03;;;1.80;;
21894;SDS011;11112;51.270;7.224;2022-11-18T03:26:06;7.45;;;1.90;;
21894;SDS011;11112;51.270;7.224;2022-11-18T03:28:39;6.72;;;2.05;;
21894;SDS011;11112;51.270;7.224;2022-11-18T03:31:17;7.90;;;2.28;;
21894;SDS011;11112;51.270;7.224;2022-11-18T03:33:51;6.05;;;1.90;;
21894;SDS011;11112;51.270;7.224;2022-11-18T03:36:23;7.60;;;2.20;;
21894;SDS011;11112;51.270;7.224;2022-11-18T03:38:58;5.50;;;1.95;;
21894;SDS011;11112;51.270;7.224;2022-11-18T03:41:27;7.30;;;2.28;;
21894;SDS011;11112;51.270;7.224;2022-11-18T03:44:03;7.28;;;2.47;;
21894;SDS011;11112;51.270;7.224;2022-11-18T03:46:37;6.60;;;2.00;;
21894;SDS011;11112;51.270;7.224;2022-11-18T03:49:09;5.05;;;2.03;;
21894;SDS011;11112;51.270;7.224;2022-11-18T03:51:43;6.13;;;2.08;;
21894;SDS011;11112;51.270;7.224;2022-11-18T03:54:17;6.68;;;2.30;;
21894;SDS011;11112;51.270;7.224;2022-11-18T03:56:53;7.68;;;2.28;;
21894;SDS011;11112;51.270;7.224;2022-11-18T03:59:25;4.93;;;1.83;;
21894;SDS011;11112;51.270;7.224;2022-11-18T04:02:05;6.88;;;1.90;;
21894;SDS011;11112;51.270;7.224;2022-11-18T04:04:37;7.70;;;2.08;;
21894;SDS011;11112;51.270;7.224;2022-11-18T04:07:06;5.57;;;2.10;;
21894;SDS011;11112;51.270;7.224;2022-11-18T04:09:40;6.88;;;2.20;;
21894;SDS011;11112;51.270;7.224;2022-11-18T04:12:13;6.28;;;1.92;;
21894;SDS011;11112;51.270;7.224;2022-11-18T04:14:44;8.57;;;2.08;;
21894;SDS011;11112;51.270;7.224;2022-11-18T04:17:16;5.93;;;1.83;;
21894;SDS011;11112;51.270;7.224;2022-11-18T04:19:47;6.65;;;2.00;;
21894;SDS011;11112;51.270;7.224;2022-11-18T04:22:14;9.80;;;2.30;;
21894;SDS011;11112;51.270;7.224;2022-11-18T04:24:43;5.07;;;1.75;;
21894;SDS011;11112;51.270;7.224;2022-11-18T04:27:11;5.93;;;1.75;;
21894;SDS011;11112;51.270;7.224;2022-11-18T04:29:38;7.05;;;2.00;;
21894;SDS011;11112;51.270;7.224;2022-11-18T04:32:06;6.00;;;2.00;;
21894;SDS011;11112;51.270;7.224;2022-11-18T04:34:34;7.07;;;2.50;;
21894;SDS011;11112;51.270;7.224;2022-11-18T04:37:01;7.93;;;2.13;;
21894;SDS011;11112;51.270;7.224;2022-11-18T04:39:29;6.53;;;2.17;;
21894;SDS011;11112;51.270;7.224;2022-11-18T04:41:56;6.82;;;1.95;;
21894;SDS011;11112;51.270;7.224;2022-11-18T04:44:23;7.70;;;2.20;;
21894;SDS011;11112;51.270;7.224;2022-11-18T04:46:53;5.32;;;2.17;;
21894;SDS011;11112;51.270;7.224;2022-11-18T04:49:21;6.60;;;2.10;;
21894;SDS011;11112;51.270;7.224;2022-11-18T04:51:51;7.10;;;2.10;;
21894;SDS011;11112;51.270;7.224;2022-11-18T04:54:19;6.28;;;1.90;;
21894;SDS011;11112;51.270;7.224;2022-11-18T04:56:46;7.30;;;2.20;;
21894;SDS011;11112;51.270;7.224;2022-11-18T04:59:15;5.78;;;2.05;;
21894;SDS011;11112;51.270;7.224;2022-11-18T05:01:46;6.18;;;1.95;;
21894;SDS011;11112;51.270;7.224;2022-11-18T05:04:14;7.78;;;2.22;;
21894;SDS011;11112;51.270;7.224;2022-11-18T05:06:44;9.90;;;2.55;;
21894;SDS011;11112;51.270;7.224;2022-11-18T05:09:13;11.40;;;2.90;;
21894;SDS011;11112;51.270;7.224;2022-11-18T05:11:40;7.32;;;2.05;;
21894;SDS011;11112;51.270;7.224;2022-11-18T05:14:26;8.20;;;2.15;;
21894;SDS011;11112;51.270;7.224;2022-11-18T05:16:55;6.15;;;2.08;;
21894;SDS011;11112;51.270;7.224;2022-11-18T05:19:26;8.85;;;2.15;;
21894;SDS011;11112;51.270;7.224;2022-11-18T05:21:54;8.02;;;2.50;;
21894;SDS011;11112;51.270;7.224;2022-11-18T05:24:22;7.15;;;2.20;;
21894;SDS011;11112;51.270;7.224;2022-11-18T05:26:50;8.70;;;2.97;;
21894;SDS011;11112;51.270;7.224;2022-11-18T05:29:18;9.07;;;2.60;;
21894;SDS011;11112;51.270;7.224;2022-11-18T05:31:47;8.70;;;2.20;;
21894;SDS011;11112;51.270;7.224;2022-11-18T05:34:15;7.45;;;2.53;;
21894;SDS011;11112;51.270;7.224;2022-11-18T05:36:42;6.18;;;2.15;;
21894;SDS011;11112;51.270;7.224;2022-11-18T05:39:10;7.35;;;2.25;;
21894;SDS011;11112;51.270;7.224;2022-11-18T05:41:38;9.00;;;2.28;;
21894;SDS011;11112;51.270;7.224;2022-11-18T05:44:23;7.85;;;2.65;;
21894;SDS011;11112;51.270;7.224;2022-11-18T05:46:52;10.40;;;2.58;;
21894;SDS011;11112;51.270;7.224;2022-11-18T05:49:21;7.53;;;2.28;;
21894;SDS011;11112;51.270;7.224;2022-11-18T05:51:49;9.13;;;2.63;;
21894;SDS011;11112;51.270;7.224;2022-11-18T05:54:16;8.07;;;2.83;;
21894;SDS011;11112;51.270;7.224;2022-11-18T05:56:46;8.18;;;2.92;;
21894;SDS011;11112;51.270;7.224;2022-11-18T05:59:14;12.02;;;3.20;;
21894;SDS011;11112;51.270;7.224;2022-11-18T06:01:42;7.70;;;3.08;;
21894;SDS011;11112;51.270;7.224;2022-11-18T06:04:13;8.23;;;2.50;;
21894;SDS011;11112;51.270;7.224;2022-11-18T06:06:43;8.00;;;2.72;;
21894;SDS011;11112;51.270;7.224;2022-11-18T06:09:13;9.40;;;3.15;;
21894;SDS011;11112;51.270;7.224;2022-11-18T06:11:48;11.02;;;3.42;;
21894;SDS011;11112;51.270;7.224;2022-11-18T06:14:19;9.27;;;2.90;;
21894;SDS011;11112;51.270;7.224;2022-11-18T06:16:53;9.57;;;3.30;;
21894;SDS011;11112;51.270;7.224;2022-11-18T06:19:23;6.47;;;2.63;;
21894;SDS011;11112;51.270;7.224;2022-11-18T06:21:51;8.68;;;3.05;;
21894;SDS011;11112;51.270;7.224;2022-11-18T06:24:19;8.63;;;3.05;;
21894;SDS011;11112;51.270;7.224;2022-11-18T06:26:48;16.17;;;3.90;;
21894;SDS011;11112;51.270;7.224;2022-11-18T06:29:16;9.52;;;3.92;;
21894;SDS011;11112;51.270;7.224;2022-11-18T06:31:45;10.88;;;3.78;;
21894;SDS011;11112;51.270;7.224;2022-11-18T06:34:12;11.75;;;3.50;;
21894;SDS011;11112;51.270;7.224;2022-11-18T06:36:40;8.10;;;3.10;;
21894;SDS011;11112;51.270;7.224;2022-11-18T06:39:07;7.07;;;3.33;;
21894;SDS011;11112;51.270;7.224;2022-11-18T06:41:34;9.68;;;3.08;;
21894;SDS011;11112;51.270;7.224;2022-11-18T06:44:03;8.52;;;3.00;;
21894;SDS011;11112;51.270;7.224;2022-11-18T06:46:31;8.05;;;2.97;;
21894;SDS011;11112;51.270;7.224;2022-11-18T06:49:16;8.35;;;2.78;;
21894;SDS011;11112;51.270;7.224;2022-11-18T06:51:44;7.45;;;2.85;;
21894;SDS011;11112;51.270;7.224;2022-11-18T06:54:11;7.85;;;3.08;;
21894;SDS011;11112;51.270;7.224;2022-11-18T06:56:39;7.43;;;3.13;;
21894;SDS011;11112;51.270;7.224;2022-11-18T06:59:08;9.82;;;4.03;;
21894;SDS011;11112;51.270;7.224;2022-11-18T07:01:36;11.65;;;4.22;;
21894;SDS011;11112;51.270;7.224;2022-11-18T07:04:05;11.00;;;4.32;;
21894;SDS011;11112;51.270;7.224;2022-11-18T07:06:33;9.70;;;3.92;;
21894;SDS011;11112;51.270;7.224;2022-11-18T07:09:03;9.55;;;3.60;;
21894;SDS011;11112;51.270;7.224;2022-11-18T07:11:32;7.53;;;3.67;;
21894;SDS011;11112;51.270;7.224;2022-11-18T07:14:02;8.27;;;3.67;;
21894;SDS011;11112;51.270;7.224;2022-11-18T07:16:32;7.78;;;3.30;;
21894;SDS011;11112;51.270;7.224;2022-11-18T07:19:00;9.98;;;3.28;;
21894;SDS011;11112;51.270;7.224;2022-11-18T07:21:33;11.90;;;3.95;;
21894;SDS011;11112;51.270;7.224;2022-11-18T07:24:03;9.95;;;3.80;;
21894;SDS011;11112;51.270;7.224;2022-11-18T07:26:34;10.05;;;4.10;;
21894;SDS011;11112;51.270;7.224;2022-11-18T07:29:01;12.02;;;4.78;;
21894;SDS011;11112;51.270;7.224;2022-11-18T07:31:30;9.85;;;4.65;;
21894;SDS011;11112;51.270;7.224;2022-11-18T07:33:59;10.75;;;4.72;;
21894;SDS011;11112;51.270;7.224;2022-11-18T07:36:27;14.30;;;4.70;;
21894;SDS011;11112;51.270;7.224;2022-11-18T07:38:57;11.05;;;4.57;;
21894;SDS011;11112;51.270;7.224;2022-11-18T07:41:26;10.75;;;4.43;;
21894;SDS011;11112;51.270;7.224;2022-11-18T07:43:55;11.43;;;4.80;;
21894;SDS011;11112;51.270;7.224;2022-11-18T07:46:26;9.90;;;4.00;;
21894;SDS011;11112;51.270;7.224;2022-11-18T07:48:58;11.82;;;4.18;;
21894;SDS011;11112;51.270;7.224;2022-11-18T07:51:29;11.52;;;4.07;;
21894;SDS011;11112;51.270;7.224;2022-11-18T07:53:58;9.63;;;3.85;;
21894;SDS011;11112;51.270;7.224;2022-11-18T07:56:28;10.13;;;3.88;;
21894;SDS011;11112;51.270;7.224;2022-11-18T07:58:56;9.30;;;4.15;;
21894;SDS011;11112;51.270;7.224;2022-11-18T08:01:24;9.48;;;3.97;;
21894;SDS011;11112;51.270;7.224;2022-11-18T08:03:54;9.68;;;4.20;;
21894;SDS011;11112;51.270;7.224;2022-11-18T08:06:24;9.45;;;3.90;;
21894;SDS011;11112;51.270;7.224;2022-11-18T08:08:51;9.05;;;4.20;;
21894;SDS011;11112;51.270;7.224;2022-11-18T08:11:18;8.18;;;4.43;;
21894;SDS011;11112;51.270;7.224;2022-11-18T08:13:46;9.35;;;4.30;;
21894;SDS011;11112;51.270;7.224;2022-11-18T08:16:14;11.60;;;5.30;;
21894;SDS011;11112;51.270;7.224;2022-11-18T08:18:44;10.95;;;4.93;;
21894;SDS011;11112;51.270;7.224;2022-11-18T08:21:13;9.32;;;4.60;;
21894;SDS011;11112;51.270;7.224;2022-11-18T08:23:45;11.70;;;4.68;;
21894;SDS011;11112;51.270;7.224;2022-11-18T08:28:44;9.48;;;4.15;;
21894;SDS011;11112;51.270;7.224;2022-11-18T08:31:14;11.02;;;4.78;;
21894;SDS011;11112;51.270;7.224;2022-11-18T08:33:44;10.02;;;4.60;;
21894;SDS011;11112;51.270;7.224;2022-11-18T08:36:13;9.68;;;4.00;;
21894;SDS011;11112;51.270;7.224;2022-11-18T08:38:44;8.68;;;4.28;;
21894;SDS011;11112;51.270;7.224;2022-11-18T08:41:11;8.23;;;4.03;;
21894;SDS011;11112;51.270;7.224;2022-11-18T08:43:40;7.95;;;3.88;;
21894;SDS011;11112;51.270;7.224;2022-11-18T08:46:08;10.38;;;4.35;;
21894;SDS011;11112;51.270;7.224;2022-11-18T08:48:35;10.00;;;4.32;;
21894;SDS011;11112;51.270;7.224;2022-11-18T08:51:02;10.15;;;4.10;;
21894;SDS011;11112;51.270;7.224;2022-11-18T08:53:31;8.75;;;3.40;;
21894;SDS011;11112;51.270;7.224;2022-11-18T08:56:01;8.25;;;3.58;;
21894;SDS011;11112;51.270;7.224;2022-11-18T08:58:28;7.63;;;3.55;;
21894;SDS011;11112;51.270;7.224;2022-11-18T09:00:56;7.28;;;3.47;;
21894;SDS011;11112;51.270;7.224;2022-11-18T09:03:24;8.25;;;3.85;;
21894;SDS011;11112;51.270;7.224;2022-11-18T09:05:51;7.22;;;3.67;;
21894;SDS011;11112;51.270;7.224;2022-11-18T09:08:19;9.68;;;4.43;;
21894;SDS011;11112;51.270;7.224;2022-11-18T09:10:50;12.93;;;4.55;;
21894;SDS011;11112;51.270;7.224;2022-11-18T09:13:19;9.25;;;4.40;;
21894;SDS011;11112;51.270;7.224;2022-11-18T09:15:46;10.05;;;4.85;;
21894;SDS011;11112;51.270;7.224;2022-11-18T09:18:15;11.82;;;4.68;;
21894;SDS011;11112;51.270;7.224;2022-11-18T09:20:43;13.13;;;4.53;;
21894;SDS011;11112;51.270;7.224;2022-11-18T09:23:20;14.35;;;5.00;;
21894;SDS011;11112;51.270;7.224;2022-11-18T09:25:48;10.65;;;4.70;;
21894;SDS011;11112;51.270;7.224;2022-11-18T09:28:25;12.00;;;5.20;;
21894;SDS011;11112;51.270;7.224;2022-11-18T09:30:53;10.25;;;4.50;;
21894;SDS011;11112;51.270;7.224;2022-11-18T09:33:20;13.13;;;4.35;;
21894;SDS011;11112;51.270;7.224;2022-11-18T09:35:49;8.32;;;3.80;;
21894;SDS011;11112;51.270;7.224;2022-11-18T09:38:16;9.77;;;4.25;;
21894;SDS011;11112;51.270;7.224;2022-11-18T09:40:46;9.88;;;4.22;;
21894;SDS011;11112;51.270;7.224;2022-11-18T09:43:24;9.25;;;4.45;;
21894;SDS011;11112;51.270;7.224;2022-11-18T09:46:07;13.00;;;5.47;;
21894;SDS011;11112;51.270;7.224;2022-11-18T09:48:47;12.57;;;5.18;;
21894;SDS011;11112;51.270;7.224;2022-11-18T09:51:35;10.05;;;4.32;;
21894;SDS011;11112;51.270;7.224;2022-11-18T09:54:07;9.15;;;3.97;;
21894;SDS011;11112;51.270;7.224;2022-11-18T09:56:39;10.25;;;4.07;;
21894;SDS011;11112;51.270;7.224;2022-11-18T09:59:09;10.57;;;3.92;;
21894;SDS011;11112;51.270;7.224;2022-11-18T10:01:39;9.25;;;4.13;;
21894;SDS011;11112;51.270;7.224;2022-11-18T10:04:12;11.70;;;4.30;;
21894;SDS011;11112;51.270;7.224;2022-11-18T10:06:41;9.13;;;4.38;;
21894;SDS011;11112;51.270;7.224;2022-11-18T10:09:11;10.75;;;4.50;;
21894;SDS011;11112;51.270;7.224;2022-11-18T10:12:17;9.73;;;4.90;;
21894;SDS011;11112;51.270;7.224;2022-11-18T10:15:00;9.38;;;4.93;;
21894;SDS011;11112;51.270;7.224;2022-11-18T10:17:43;9.23;;;4.65;;
21894;SDS011;11112;51.270;7.224;2022-11-18T10:20:28;11.68;;;4.75;;
21894;SDS011;11112;51.270;7.224;2022-11-18T10:23:07;12.20;;;5.47;;
21894;SDS011;11112;51.270;7.224;2022-11-18T10:25:42;14.40;;;4.80;;
21894;SDS011;11112;51.270;7.224;2022-11-18T10:28:14;12.02;;;4.50;;
21894;SDS011;11112;51.270;7.224;2022-11-18T10:30:47;13.68;;;5.25;;
21894;SDS011;11112;51.270;7.224;2022-11-18T10:33:23;11.00;;;4.68;;
21894;SDS011;11112;51.270;7.224;2022-11-18T10:36:10;12.30;;;4.80;;
21894;SDS011;11112;51.270;7.224;2022-11-18T10:39:04;11.20;;;4.50;;
21894;SDS011;11112;51.270;7.224;2022-11-18T10:41:38;13.10;;;5.03;;
21894;SDS011;11112;51.270;7.224;2022-11-18T10:44:30;12.45;;;4.60;;
21894;SDS011;11112;51.270;7.224;2022-11-18T10:49:58;10.10;;;4.60;;
21894;SDS011;11112;51.270;7.224;2022-11-18T10:52:38;11.68;;;4.68;;
21894;SDS011;11112;51.270;7.224;2022-11-18T10:55:20;10.35;;;4.35;;
21894;SDS011;11112;51.270;7.224;2022-11-18T10:57:49;10.48;;;3.92;;
21894;SDS011;11112;51.270;7.224;2022-11-18T11:00:32;10.93;;;4.00;;
21894;SDS011;11112;51.270;7.224;2022-11-18T11:03:18;13.02;;;4.03;;
21894;SDS011;11112;51.270;7.224;2022-11-18T11:06:21;14.13;;;4.00;;
21894;SDS011;11112;51.270;7.224;2022-11-18T11:08:59;10.40;;;3.75;;
21894;SDS011;11112;51.270;7.224;2022-11-18T11:11:30;7.43;;;4.03;;
21894;SDS011;11112;51.270;7.224;2022-11-18T11:14:10;13.52;;;3.80;;
21894;SDS011;11112;51.270;7.224;2022-11-18T11:16:50;8.05;;;3.47;;
21894;SDS011;11112;51.270;7.224;2022-11-18T11:19:28;12.88;;;4.25;;
21894;SDS011;11112;51.270;7.224;2022-11-18T11:22:07;11.93;;;3.75;;
21894;SDS011;11112;51.270;7.224;2022-11-18T11:24:36;12.32;;;4.32;;
21894;SDS011;11112;51.270;7.224;2022-11-18T11:27:09;10.32;;;3.90;;
21894;SDS011;11112;51.270;7.224;2022-11-18T11:30:08;9.98;;;4.05;;
21894;SDS011;11112;51.270;7.224;2022-11-18T11:32:49;14.35;;;4.53;;
21894;SDS011;11112;51.270;7.224;2022-11-18T11:35:44;10.45;;;4.13;;
21894;SDS011;11112;51.270;7.224;2022-11-18T11:38:19;14.60;;;3.67;;
21894;SDS011;11112;51.270;7.224;2022-11-18T11:41:05;11.82;;;4.20;;
21894;SDS011;11112;51.270;7.224;2022-11-18T11:43:47;11.23;;;3.58;;
21894;SDS011;11112;51.270;7.224;2022-11-18T11:46:34;10.35;;;3.38;;
21894;SDS011;11112;51.270;7.224;2022-11-18T11:49:35;12.02;;;3.40;;
21894;SDS011;11112;51.270;7.224;2022-11-18T11:52:21;9.88;;;3.47;;
21894;SDS011;11112;51.270;7.224;2022-11-18T11:55:04;8.95;;;3.60;;
21894;SDS011;11112;51.270;7.224;2022-11-18T11:57:46;13.73;;;3.70;;
21894;SDS011;11112;51.270;7.224;2022-11-18T12:00:27;11.60;;;3.40;;
21894;SDS011;11112;51.270;7.224;2022-11-18T12:03:09;10.55;;;3.40;;
21894;SDS011;11112;51.270;7.224;2022-11-18T12:05:53;10.77;;;3.20;;
21894;SDS011;11112;51.270;7.224;2022-11-18T12:08:22;11.32;;;3.60;;
21894;SDS011;11112;51.270;7.224;2022-11-18T12:10:52;9.55;;;3.03;;
21894;SDS011;11112;51.270;7.224;2022-11-18T12:13:34;8.90;;;2.88;;
21894;SDS011;11112;51.270;7.224;2022-11-18T12:16:20;11.05;;;2.88;;
21894;SDS011;11112;51.270;7.224;2022-11-18T12:18:56;9.68;;;2.55;;
21894;SDS011;11112;51.270;7.224;2022-11-18T12:24:41;10.80;;;3.65;;
21894;SDS011;11112;51.270;7.224;2022-11-18T12:27:12;9.88;;;3.58;;
21894;SDS011;11112;51.270;7.224;2022-11-18T12:30:17;9.63;;;2.90;;
21894;SDS011;11112;51.270;7.224;2022-11-18T12:32:46;17.15;;;3.50;;
21894;SDS011;11112;51.270;7.224;2022-11-18T12:35:24;11.63;;;3.72;;
21894;SDS011;11112;51.270;7.224;2022-11-18T12:38:01;11.57;;;3.17;;
21894;SDS011;11112;51.270;7.224;2022-11-18T12:52:52;9.75;;;3.00;;
21894;SDS011;11112;51.270;7.224;2022-11-18T12:55:23;8.98;;;3.17;;
21894;SDS011;11112;51.270;7.224;2022-11-18T12:57:59;13.95;;;3.38;;
21894;SDS011;11112;51.270;7.224;2022-11-18T13:00:31;9.57;;;2.90;;
21894;SDS011;11112;51.270;7.224;2022-11-18T13:03:29;9.90;;;2.67;;
21894;SDS011;11112;51.270;7.224;2022-11-18T13:06:04;9.88;;;2.95;;
21894;SDS011;11112;51.270;7.224;2022-11-18T13:08:40;14.23;;;3.17;;
21894;SDS011;11112;51.270;7.224;2022-11-18T13:11:08;10.32;;;2.90;;
21894;SDS011;11112;51.270;7.224;2022-11-18T13:13:58;9.75;;;2.83;;
21894;SDS011;11112;51.270;7.224;2022-11-18T13:16:46;9.55;;;3.22;;
21894;SDS011;11112;51.270;7.224;2022-11-18T13:19:33;12.10;;;3.28;;
21894;SDS011;11112;51.270;7.224;2022-11-18T13:22:00;11.77;;;3.08;;
21894;SDS011;11112;51.270;7.224;2022-11-18T13:24:46;13.80;;;3.55;;
21894;SDS011;11112;51.270;7.224;2022-11-18T13:27:19;13.90;;;3.28;;
21894;SDS011;11112;51.270;7.224;2022-11-18T13:30:00;13.18;;;2.67;;
21894;SDS011;11112;51.270;7.224;2022-11-18T13:32:32;8.88;;;2.58;;
21894;SDS011;11112;51.270;7.224;2022-11-18T13:35:06;10.90;;;2.75;;
21894;SDS011;11112;51.270;7.224;2022-11-18T13:37:46;12.10;;;2.97;;
21894;SDS011;11112;51.270;7.224;2022-11-18T13:40:20;9.45;;;2.72;;
21894;SDS011;11112;51.270;7.224;2022-11-18T13:42:50;11.73;;;2.47;;
21894;SDS011;11112;51.270;7.224;2022-11-18T13:45:17;7.70;;;2.35;;
21894;SDS011;11112;51.270;7.224;2022-11-18T13:47:48;11.50;;;2.40;;
21894;SDS011;11112;51.270;7.224;2022-11-18T13:50:21;10.15;;;2.67;;
21894;SDS011;11112;51.270;7.224;2022-11-18T13:52:56;10.88;;;2.60;;
21894;SDS011;11112;51.270;7.224;2022-11-18T13:55:33;8.57;;;2.42;;
21894;SDS011;11112;51.270;7.224;2022-11-18T13:58:04;11.35;;;2.88;;
21894;SDS011;11112;51.270;7.224;2022-11-18T14:00:53;11.25;;;2.60;;
21894;SDS011;11112;51.270;7.224;2022-11-18T14:03:24;7.50;;;2.30;;
21894;SDS011;11112;51.270;7.224;2022-11-18T14:05:57;8.45;;;2.40;;
21894;SDS011;11112;51.270;7.224;2022-11-18T14:08:27;9.38;;;2.38;;
21894;SDS011;11112;51.270;7.224;2022-11-18T14:10:56;8.98;;;2.38;;
21894;SDS011;11112;51.270;7.224;2022-11-18T14:13:24;10.63;;;2.95;;
21894;SDS011;11112;51.270;7.224;2022-11-18T14:15:54;10.23;;;2.40;;
21894;SDS011;11112;51.270;7.224;2022-11-18T14:18:27;12.48;;;2.38;;
21894;SDS011;11112;51.270;7.224;2022-11-18T14:20:58;8.55;;;2.28;;
21894;SDS011;11112;51.270;7.224;2022-11-18T14:23:28;8.90;;;2.38;;
21894;SDS011;11112;51.270;7.224;2022-11-18T14:25:57;7.25;;;2.35;;
21894;SDS011;11112;51.270;7.224;2022-11-18T14:28:27;9.43;;;2.88;;
21894;SDS011;11112;51.270;7.224;2022-11-18T14:31:01;10.35;;;2.40;;
21894;SDS011;11112;51.270;7.224;2022-11-18T14:33:33;8.27;;;2.33;;
21894;SDS011;11112;51.270;7.224;2022-11-18T14:36:07;8.98;;;2.20;;
21894;SDS011;11112;51.270;7.224;2022-11-18T14:38:40;9.02;;;2.13;;
21894;SDS011;11112;51.270;7.224;2022-11-18T14:43:39;8.27;;;2.30;;
21894;SDS011;11112;51.270;7.224;2022-11-18T14:46:11;7.97;;;2.20;;
21894;SDS011;11112;51.270;7.224;2022-11-18T14:48:41;8.52;;;2.15;;
21894;SDS011;11112;51.270;7.224;2022-11-18T14:51:12;14.98;;;2.47;;
21894;SDS011;11112;51.270;7.224;2022-11-18T14:53:40;12.20;;;2.38;;
21894;SDS011;11112;51.270;7.224;2022-11-18T14:56:10;9.43;;;2.50;;
21894;SDS011;11112;51.270;7.224;2022-11-18T14:58:41;10.20;;;2.13;;
21894;SDS011;11112;51.270;7.224;2022-11-18T15:01:09;8.25;;;2.33;;
21894;SDS011;11112;51.270;7.224;2022-11-18T15:03:37;7.55;;;2.25;;
21894;SDS011;11112;51.270;7.224;2022-11-18T15:06:05;9.98;;;2.40;;
21894;SDS011;11112;51.270;7.224;2022-11-18T15:08:40;7.22;;;2.40;;
21894;SDS011;11112;51.270;7.224;2022-11-18T15:11:08;9.50;;;2.58;;
21894;SDS011;11112;51.270;7.224;2022-11-18T15:13:35;8.95;;;2.67;;
21894;SDS011;11112;51.270;7.224;2022-11-18T15:16:05;10.10;;;2.67;;
21894;SDS011;11112;51.270;7.224;2022-11-18T15:18:39;11.70;;;2.60;;
21894;SDS011;11112;51.270;7.224;2022-11-18T15:21:07;7.75;;;2.25;;
21894;SDS011;11112;51.270;7.224;2022-11-18T15:23:36;8.25;;;2.40;;
21894;SDS011;11112;51.270;7.224;2022-11-18T15:26:19;9.02;;;2.53;;
21894;SDS011;11112;51.270;7.224;2022-11-18T15:28:48;9.43;;;2.63;;
21894;SDS011;11112;51.270;7.224;2022-11-18T15:31:17;8.38;;;2.70;;
21894;SDS011;11112;51.270;7.224;2022-11-18T15:33:45;10.15;;;2.50;;
21894;SDS011;11112;51.270;7.224;2022-11-18T15:36:14;10.48;;;2.53;;
21894;SDS011;11112;51.270;7.224;2022-11-18T15:38:45;9.52;;;2.90;;
21894;SDS011;11112;51.270;7.224;2022-11-18T15:41:14;10.95;;;2.95;;